createdAt,value
2023-03-08T00:03:56.360Z,3.50
2023-03-08T00:09:02.356Z,5.50
2023-03-08T00:14:05.862Z,3.50
2023-03-08T00:19:09.379Z,5.10
2023-03-08T00:24:16.909Z,4.90
2023-03-08T00:29:20.443Z,4.20
2023-03-08T00:34:23.927Z,5.00
2023-03-08T00:39:27.338Z,5.40
2023-03-08T00:44:31.058Z,4.80
2023-03-08T00:49:34.484Z,4.90
2023-03-08T00:54:38.405Z,3.60
2023-03-08T00:59:41.916Z,3.70
2023-03-08T01:04:45.428Z,3.50
2023-03-08T01:09:49.357Z,3.90
2023-03-08T01:14:54.028Z,4.60
2023-03-08T01:19:58.124Z,3.90
2023-03-08T01:25:01.745Z,3.60
2023-03-08T01:30:05.832Z,4.80
2023-03-08T01:35:10.004Z,4.00
2023-03-08T01:40:16.703Z,4.20
2023-03-08T01:45:57.890Z,4.60
2023-03-08T01:51:04.601Z,3.30
2023-03-08T01:56:11.820Z,4.10
2023-03-08T02:01:16.130Z,4.20
2023-03-08T02:11:25.659Z,4.10
2023-03-08T02:16:29.430Z,4.50
2023-03-08T02:21:33.461Z,5.20
2023-03-08T02:26:38.238Z,5.10
2023-03-08T02:31:41.720Z,8.30
2023-03-08T02:36:45.130Z,8.90
2023-03-08T02:41:48.765Z,6.10
2023-03-08T02:46:53.291Z,3.90
2023-03-08T02:51:56.702Z,6.40
2023-03-08T02:57:00.163Z,4.90
2023-03-08T03:02:03.837Z,4.80
2023-03-08T03:07:07.572Z,3.50
2023-03-08T03:12:11.073Z,5.60
2023-03-08T03:17:14.589Z,3.80
2023-03-08T03:22:18.205Z,3.40
2023-03-08T03:27:21.716Z,3.90
2023-03-08T03:32:25.662Z,4.60
2023-03-08T03:37:29.151Z,3.60
2023-03-08T03:42:32.565Z,7.00
2023-03-08T03:47:36.186Z,7.30
2023-03-08T03:52:39.809Z,8.50
2023-03-08T03:57:44.248Z,6.00
2023-03-08T04:07:51.178Z,7.80
2023-03-08T04:12:54.794Z,7.70
2023-03-08T04:17:58.519Z,4.80
2023-03-08T04:23:02.033Z,3.40
2023-03-08T04:28:05.405Z,5.10
2023-03-08T04:33:09.576Z,3.50
2023-03-08T04:38:13.190Z,3.00
2023-03-08T04:43:16.708Z,7.60
2023-03-08T04:48:20.533Z,7.40
2023-03-08T04:53:24.964Z,5.60
2023-03-08T05:03:32.713Z,4.40
2023-03-08T05:08:36.843Z,2.90
2023-03-08T05:13:40.366Z,4.10
2023-03-08T05:18:44.088Z,3.30
2023-03-08T05:23:47.594Z,3.30
2023-03-08T05:28:51.095Z,3.20
2023-03-08T05:33:54.729Z,2.90
2023-03-08T05:38:58.137Z,2.30
2023-03-08T05:44:02.678Z,2.80
2023-03-08T05:49:07.323Z,2.90
2023-03-08T05:54:10.835Z,1.90
2023-03-08T05:59:14.537Z,2.40
2023-03-08T06:04:17.964Z,2.80
2023-03-08T06:09:21.582Z,3.70
2023-03-08T06:14:25.607Z,3.60
2023-03-08T06:19:29.129Z,6.30
2023-03-08T06:24:32.641Z,5.30
2023-03-08T06:29:36.464Z,7.50
2023-03-08T06:34:40.289Z,4.90
2023-03-08T06:39:43.726Z,5.40
2023-03-08T06:44:47.323Z,7.60
2023-03-08T06:49:52.485Z,5.20
2023-03-08T06:54:55.892Z,5.10
2023-03-08T06:59:59.510Z,4.40
2023-03-08T07:05:03.125Z,4.20
2023-03-08T07:10:07.340Z,4.60
2023-03-08T07:15:14.731Z,4.20
2023-03-08T07:20:20.740Z,6.00
2023-03-08T07:25:24.247Z,5.30
2023-03-08T07:30:27.785Z,6.10
2023-03-08T07:35:31.384Z,6.60
2023-03-08T07:40:35.001Z,6.20
2023-03-08T07:45:40.064Z,4.80
2023-03-08T07:50:43.571Z,6.70
2023-03-08T07:55:47.191Z,2.60
2023-03-08T08:00:50.710Z,5.70
2023-03-08T08:05:54.321Z,3.50
2023-03-08T08:10:57.839Z,3.30
2023-03-08T08:16:03.179Z,4.00
2023-03-08T08:21:09.476Z,3.10
2023-03-08T08:26:21.795Z,4.20
2023-03-08T08:31:31.257Z,3.90
2023-03-08T08:36:34.769Z,3.80
2023-03-08T08:41:38.384Z,2.40
2023-03-08T08:46:42.002Z,2.30
2023-03-08T08:51:45.627Z,2.40
2023-03-08T08:56:49.241Z,2.20
2023-03-08T09:01:52.753Z,2.60
2023-03-08T09:06:56.369Z,5.20
2023-03-08T09:11:59.987Z,2.90
2023-03-08T09:17:07.004Z,2.00
2023-03-08T09:22:11.648Z,1.80
2023-03-08T09:27:15.045Z,1.90
2023-03-08T09:32:18.840Z,3.20
2023-03-08T09:37:22.281Z,3.40
2023-03-08T09:42:34.244Z,1.60
2023-03-08T09:48:07.194Z,3.20
2023-03-08T09:53:22.567Z,2.90
2023-03-08T09:58:42.294Z,7.50
2023-03-08T10:04:12.193Z,5.90
2023-03-08T10:09:51.783Z,7.00
2023-03-08T10:15:18.542Z,7.50
2023-03-08T10:20:30.252Z,6.40
2023-03-08T10:25:35.037Z,2.50
2023-03-08T10:30:45.006Z,2.50
2023-03-08T10:36:12.786Z,5.20
2023-03-08T10:41:18.314Z,3.40
2023-03-08T10:46:28.561Z,5.60
2023-03-08T10:51:32.102Z,4.60
2023-03-08T10:56:51.391Z,9.70
2023-03-08T11:01:59.409Z,9.60
2023-03-08T11:07:17.155Z,9.60
2023-03-08T11:12:26.669Z,8.90
2023-03-08T11:17:39.668Z,4.90
2023-03-08T11:22:59.343Z,4.60
2023-03-08T11:28:18.326Z,8.20
2023-03-08T11:33:40.904Z,8.20
2023-03-08T11:38:54.639Z,9.30
2023-03-08T11:43:58.883Z,12.30
2023-03-08T11:49:21.343Z,7.30
2023-03-08T11:54:30.889Z,4.20
2023-03-08T11:59:36.959Z,3.10
2023-03-08T12:05:08.493Z,2.40
2023-03-08T12:10:30.255Z,3.90
2023-03-08T12:15:38.184Z,9.90
2023-03-08T12:20:44.177Z,13.00
2023-03-08T12:25:53.108Z,10.70
2023-03-08T12:31:24.784Z,6.00
2023-03-08T12:36:42.252Z,6.40
2023-03-08T12:42:08.891Z,3.30
2023-03-08T12:47:12.407Z,4.00
2023-03-08T12:52:19.314Z,6.10
2023-03-08T12:57:28.492Z,6.70
2023-03-08T13:02:34.740Z,11.30
2023-03-08T13:07:47.565Z,6.00
2023-03-08T13:13:20.546Z,11.20
2023-03-08T13:18:42.535Z,7.40
2023-03-08T13:24:36.129Z,3.40
2023-03-08T13:29:43.552Z,2.30
2023-03-08T13:35:14.273Z,5.60
2023-03-08T13:40:20.681Z,3.90
2023-03-08T13:45:24.885Z,4.70
2023-03-08T13:50:32.105Z,3.60
2023-03-08T13:55:40.306Z,11.00
2023-03-08T14:00:43.737Z,4.60
2023-03-08T14:05:47.267Z,7.50
2023-03-08T14:11:06.760Z,10.00
2023-03-08T14:16:24.668Z,7.30
2023-03-08T14:21:30.209Z,7.10
2023-03-08T14:26:41.363Z,15.00
2023-03-08T14:32:11.136Z,12.90
2023-03-08T14:37:35.071Z,9.10
2023-03-08T14:42:47.292Z,2.60
2023-03-08T14:47:58.346Z,2.90
2023-03-08T14:53:04.269Z,2.00
2023-03-08T14:58:14.122Z,1.60
2023-03-08T15:03:17.524Z,2.50
2023-03-08T15:08:21.930Z,4.10
2023-03-08T15:13:25.279Z,5.20
2023-03-08T15:18:28.890Z,2.30
2023-03-08T15:23:35.783Z,3.20
2023-03-08T15:28:39.202Z,3.30
2023-03-08T15:33:42.709Z,4.70
2023-03-08T15:38:46.346Z,6.50
2023-03-08T15:43:49.944Z,5.20
2023-03-08T15:48:53.464Z,14.90
2023-03-08T15:53:57.078Z,13.70
2023-03-08T15:59:00.523Z,14.40
2023-03-08T16:04:04.620Z,18.30
2023-03-08T16:09:08.141Z,15.70
2023-03-08T16:14:17.899Z,6.80
2023-03-08T16:19:21.319Z,5.30
2023-03-08T16:24:24.863Z,5.50
2023-03-08T16:29:28.454Z,5.40
2023-03-08T16:34:32.350Z,5.40
2023-03-08T16:39:36.099Z,3.90
2023-03-08T16:44:40.055Z,6.00
2023-03-08T16:49:43.435Z,6.50
2023-03-08T16:54:46.954Z,11.40
2023-03-08T16:59:50.585Z,16.00
2023-03-08T17:04:54.289Z,12.00
2023-03-08T17:09:58.649Z,6.40
2023-03-08T17:20:09.871Z,7.20
2023-03-08T17:25:13.364Z,7.90
2023-03-08T17:30:17.297Z,8.40
2023-03-08T17:35:20.781Z,5.60
2023-03-08T17:40:24.325Z,5.80
2023-03-08T17:45:29.379Z,7.30
2023-03-08T17:50:34.736Z,6.10
2023-03-08T17:55:41.977Z,4.80
2023-03-08T18:00:45.758Z,6.90
2023-03-08T18:05:53.752Z,6.90
2023-03-08T18:10:57.500Z,5.40
2023-03-08T18:16:00.956Z,5.20
2023-03-08T18:21:13.366Z,5.50
2023-03-08T18:26:19.554Z,13.30
2023-03-08T18:31:26.626Z,11.30
2023-03-08T18:36:30.539Z,11.70
2023-03-08T18:41:34.671Z,13.70
2023-03-08T18:46:38.101Z,16.90
2023-03-08T18:51:43.159Z,9.50
2023-03-08T18:56:50.081Z,8.40
2023-03-08T19:01:54.526Z,7.80
2023-03-08T19:06:58.194Z,7.50
2023-03-08T19:12:05.695Z,14.50
2023-03-08T19:17:09.178Z,15.70
2023-03-08T19:22:12.728Z,14.00
2023-03-08T19:27:16.347Z,17.70
2023-03-08T19:32:20.245Z,15.90
2023-03-08T19:37:23.992Z,25.90
2023-03-08T19:42:27.440Z,21.80
2023-03-08T19:47:31.032Z,23.80
2023-03-08T19:52:34.521Z,24.40
2023-03-08T19:57:38.467Z,30.70
2023-03-08T20:02:45.979Z,35.40
2023-03-08T20:07:49.469Z,18.40
2023-03-08T20:12:53.112Z,14.20
2023-03-08T20:17:56.834Z,10.40
2023-03-08T20:23:00.155Z,9.50
2023-03-08T20:28:03.858Z,9.60
2023-03-08T20:33:07.269Z,8.90
2023-03-08T20:38:10.889Z,11.70
2023-03-08T20:43:14.521Z,12.70
2023-03-08T20:48:18.145Z,15.20
2023-03-08T20:53:21.539Z,17.40
2023-03-08T20:58:26.589Z,13.10
2023-03-08T21:03:29.938Z,23.80
2023-03-08T21:08:33.420Z,36.00
2023-03-08T21:13:37.544Z,25.50
2023-03-08T21:18:46.070Z,19.50
2023-03-08T21:23:51.457Z,12.50
2023-03-08T21:29:01.887Z,13.90
2023-03-08T21:34:07.226Z,12.00
2023-03-08T21:39:12.148Z,11.50
2023-03-08T21:44:18.434Z,12.50
2023-03-08T21:49:24.896Z,13.10
2023-03-08T21:54:30.254Z,21.90
2023-03-08T21:59:33.756Z,22.30
2023-03-08T22:04:39.532Z,22.90
2023-03-08T22:09:43.057Z,25.60
2023-03-08T22:14:46.451Z,33.60
2023-03-08T22:19:51.343Z,55.40
2023-03-08T22:24:54.823Z,52.30
2023-03-08T22:29:58.636Z,60.20
2023-03-08T22:35:02.074Z,121.80
2023-03-08T22:40:11.003Z,65.70
2023-03-08T22:45:14.925Z,60.00
2023-03-08T22:50:18.670Z,55.90
2023-03-08T22:55:22.156Z,40.10
2023-03-08T23:00:26.391Z,44.50
2023-03-08T23:05:29.901Z,49.50
2023-03-08T23:10:34.908Z,62.40
2023-03-08T23:15:38.483Z,58.80
2023-03-08T23:20:42.122Z,55.90
2023-03-08T23:25:45.808Z,63.50
2023-03-08T23:30:49.325Z,55.80
2023-03-08T23:35:53.018Z,49.20
2023-03-08T23:40:56.662Z,53.00
2023-03-08T23:46:00.222Z,49.60
2023-03-08T23:51:10.194Z,37.70
2023-03-08T23:56:27.058Z,30.60
